Hovedside
METAR-TAF:

METAR-TAF

Lufthavner :

Mendoza, Argentina

breddegrad: 32-50S, lengdegrad: 068-47W, høyde over havet: 705 m

Gjeldene værobservasjon

Denne rapporten ble laget for 51 minutter siden, klokken 17:00 UTC
Vind 6 kt fra Øst
Temperatur 19°C
Luftfuktighet 64%
Trykk 1015 hPa
Sikt 10 km eller mer
Få skyer i en høyde av 4000 ft
Spredte skyer i en høyde av 4500 ft

METAR: SAME 211700Z 09006KT 9999 FEW040 SCT045 19/12 Q1015

Tid: 14:51 (17:51 UTC)

Varsel

Denne rapporten ble laget for 51 minutter siden, klokken 17:00 UTC
Varsel gyldig fra 21. klokken 18 UTC til 22. klokken 18 UTC
Vind 5 kt fra Nordøst
Sikt: 8000 m
Spredte skyer i en høyde av 3000 ft
Overskyet i en høyde av 4000 ft
dis
Blir
fra 21. klokken 20 UTC til 21. klokken 22 UTC
Vind 5 kt fra Sørøst
Sikt 10 km eller mer
Spredte skyer i en høyde av 3000 ft
Spredte skyer i en høyde av 4000 ft

TAF: SAME 211700Z 2118/2218 05005KT 8000 BR SCT030 OVC040 TX20/2120Z TN10/2210Z BECMG 2120/2122 14005KT 9999 SCT030 SCT040

Værobservasjoner og værvarsel for over 4000 flyplasser (METAR- og TAF-rapporter).

Tilgjengelige stasjoner er representert av de røde og gule prikkene på kartet.

Hold musepekeren over prikken for å se navnet på stasjonen.

Klikk så for å se værobservasjoner og -varsler.

For å forandre kartet kan du klikke på den grønne knappen med svart kryss for å zoome inn, på den grønne knappen med strek for å zoome ut, eller på de grønne pilene for å se tilstøtende kart.


METAR-TAF: